sensor_id;sensor_type;location;lat;lon;timestamp;temperature;humidity
46890;DHT22;32625;51.080;16.970;2022-11-03T00:02:03;6.40;99.90
46890;DHT22;32625;51.080;16.970;2022-11-03T00:04:31;6.30;99.90
46890;DHT22;32625;51.080;16.970;2022-11-03T00:06:58;6.30;99.90
46890;DHT22;32625;51.080;16.970;2022-11-03T00:09:25;6.30;99.90
46890;DHT22;32625;51.080;16.970;2022-11-03T00:11:53;6.30;99.90
46890;DHT22;32625;51.080;16.970;2022-11-03T00:14:20;6.30;99.90
46890;DHT22;32625;51.080;16.970;2022-11-03T00:16:48;6.20;99.90
46890;DHT22;32625;51.080;16.970;2022-11-03T00:19:15;6.20;99.90
46890;DHT22;32625;51.080;16.970;2022-11-03T00:21:43;6.10;99.90
46890;DHT22;32625;51.080;16.970;2022-11-03T00:24:11;6.10;99.90
46890;DHT22;32625;51.080;16.970;2022-11-03T00:26:39;6.10;99.90
46890;DHT22;32625;51.080;16.970;2022-11-03T00:29:11;6.10;99.90
46890;DHT22;32625;51.080;16.970;2022-11-03T00:31:43;6.00;99.90
46890;DHT22;32625;51.080;16.970;2022-11-03T00:34:11;6.00;99.90
46890;DHT22;32625;51.080;16.970;2022-11-03T00:36:40;6.00;99.90
46890;DHT22;32625;51.080;16.970;2022-11-03T00:39:08;5.90;99.90
46890;DHT22;32625;51.080;16.970;2022-11-03T00:41:36;5.90;99.90
46890;DHT22;32625;51.080;16.970;2022-11-03T00:44:03;5.90;99.90
46890;DHT22;32625;51.080;16.970;2022-11-03T00:46:30;5.90;99.90
46890;DHT22;32625;51.080;16.970;2022-11-03T00:49:02;5.80;99.90
46890;DHT22;32625;51.080;16.970;2022-11-03T00:51:30;5.80;99.90
46890;DHT22;32625;51.080;16.970;2022-11-03T00:54:01;5.80;99.90
46890;DHT22;32625;51.080;16.970;2022-11-03T00:56:35;5.80;99.90
46890;DHT22;32625;51.080;16.970;2022-11-03T00:59:04;5.80;99.90
46890;DHT22;32625;51.080;16.970;2022-11-03T01:01:35;5.80;99.90
46890;DHT22;32625;51.080;16.970;2022-11-03T01:04:10;5.80;99.90
46890;DHT22;32625;51.080;16.970;2022-11-03T01:06:58;5.70;99.90
46890;DHT22;32625;51.080;16.970;2022-11-03T01:17:01;5.60;99.90
46890;DHT22;32625;51.080;16.970;2022-11-03T01:19:28;5.60;99.90
46890;DHT22;32625;51.080;16.970;2022-11-03T01:21:55;5.60;99.90
46890;DHT22;32625;51.080;16.970;2022-11-03T01:24:22;5.60;99.90
46890;DHT22;32625;51.080;16.970;2022-11-03T01:26:49;5.50;99.90
46890;DHT22;32625;51.080;16.970;2022-11-03T01:29:16;5.50;99.90
46890;DHT22;32625;51.080;16.970;2022-11-03T01:31:44;5.40;99.90
46890;DHT22;32625;51.080;16.970;2022-11-03T01:34:15;5.40;99.90
46890;DHT22;32625;51.080;16.970;2022-11-03T01:36:43;5.40;99.90
46890;DHT22;32625;51.080;16.970;2022-11-03T01:39:16;5.40;99.90
46890;DHT22;32625;51.080;16.970;2022-11-03T01:41:46;5.40;99.90
46890;DHT22;32625;51.080;16.970;2022-11-03T01:52:10;5.30;99.90
46890;DHT22;32625;51.080;16.970;2022-11-03T01:54:41;5.20;99.90
46890;DHT22;32625;51.080;16.970;2022-11-03T01:57:14;5.20;99.90
46890;DHT22;32625;51.080;16.970;2022-11-03T01:59:43;5.20;99.90
46890;DHT22;32625;51.080;16.970;2022-11-03T02:02:18;5.20;99.90
46890;DHT22;32625;51.080;16.970;2022-11-03T02:04:45;5.10;99.90
46890;DHT22;32625;51.080;16.970;2022-11-03T02:07:39;5.10;99.90
46890;DHT22;32625;51.080;16.970;2022-11-03T02:10:04;5.10;99.90
46890;DHT22;32625;51.080;16.970;2022-11-03T02:12:32;5.10;99.90
46890;DHT22;32625;51.080;16.970;2022-11-03T02:15:05;5.00;99.90
46890;DHT22;32625;51.080;16.970;2022-11-03T02:17:35;5.00;99.90
46890;DHT22;32625;51.080;16.970;2022-11-03T02:20:06;5.00;99.90
46890;DHT22;32625;51.080;16.970;2022-11-03T02:25:45;5.00;99.90
46890;DHT22;32625;51.080;16.970;2022-11-03T02:28:20;5.00;99.90
46890;DHT22;32625;51.080;16.970;2022-11-03T02:36:48;4.90;99.90
46890;DHT22;32625;51.080;16.970;2022-11-03T02:39:40;4.90;99.90
46890;DHT22;32625;51.080;16.970;2022-11-03T02:42:10;4.90;99.90
46890;DHT22;32625;51.080;16.970;2022-11-03T02:44:38;4.90;99.90
46890;DHT22;32625;51.080;16.970;2022-11-03T02:47:09;4.80;99.90
46890;DHT22;32625;51.080;16.970;2022-11-03T02:49:39;4.80;99.90
46890;DHT22;32625;51.080;16.970;2022-11-03T02:52:29;4.70;99.90
46890;DHT22;32625;51.080;16.970;2022-11-03T02:54:54;4.80;99.90
46890;DHT22;32625;51.080;16.970;2022-11-03T02:57:27;4.70;99.90
46890;DHT22;32625;51.080;16.970;2022-11-03T02:59:59;4.70;99.90
46890;DHT22;32625;51.080;16.970;2022-11-03T03:03:31;4.70;99.90
46890;DHT22;32625;51.080;16.970;2022-11-03T03:05:40;4.60;99.90
46890;DHT22;32625;51.080;16.970;2022-11-03T03:08:09;4.60;99.90
46890;DHT22;32625;51.080;16.970;2022-11-03T03:10:45;4.60;99.90
46890;DHT22;32625;51.080;16.970;2022-11-03T03:13:16;4.60;99.90
46890;DHT22;32625;51.080;16.970;2022-11-03T03:16:03;4.60;99.90
46890;DHT22;32625;51.080;16.970;2022-11-03T03:18:44;4.60;99.90
46890;DHT22;32625;51.080;16.970;2022-11-03T03:21:18;4.50;99.90
46890;DHT22;32625;51.080;16.970;2022-11-03T03:23:56;4.50;99.90
46890;DHT22;32625;51.080;16.970;2022-11-03T03:26:45;4.50;99.90
46890;DHT22;32625;51.080;16.970;2022-11-03T03:29:26;4.40;99.90
46890;DHT22;32625;51.080;16.970;2022-11-03T03:31:57;4.50;99.90
46890;DHT22;32625;51.080;16.970;2022-11-03T03:34:26;4.50;99.90
46890;DHT22;32625;51.080;16.970;2022-11-03T03:37:04;4.50;99.90
46890;DHT22;32625;51.080;16.970;2022-11-03T03:39:35;4.50;99.90
46890;DHT22;32625;51.080;16.970;2022-11-03T03:42:06;4.40;99.90
46890;DHT22;32625;51.080;16.970;2022-11-03T03:44:35;4.40;99.90
46890;DHT22;32625;51.080;16.970;2022-11-03T03:47:08;4.40;99.90
46890;DHT22;32625;51.080;16.970;2022-11-03T03:49:36;4.40;99.90
46890;DHT22;32625;51.080;16.970;2022-11-03T03:52:03;4.40;99.90
46890;DHT22;32625;51.080;16.970;2022-11-03T03:54:30;4.40;99.90
46890;DHT22;32625;51.080;16.970;2022-11-03T03:57:01;4.40;99.90
46890;DHT22;32625;51.080;16.970;2022-11-03T03:59:29;4.40;99.90
46890;DHT22;32625;51.080;16.970;2022-11-03T04:01:56;4.30;99.90
46890;DHT22;32625;51.080;16.970;2022-11-03T04:04:24;4.30;99.90
46890;DHT22;32625;51.080;16.970;2022-11-03T04:06:52;4.30;99.90
46890;DHT22;32625;51.080;16.970;2022-11-03T04:09:40;4.30;99.90
46890;DHT22;32625;51.080;16.970;2022-11-03T04:12:08;4.20;99.90
46890;DHT22;32625;51.080;16.970;2022-11-03T04:14:53;4.20;99.90
46890;DHT22;32625;51.080;16.970;2022-11-03T04:17:42;4.20;99.90
46890;DHT22;32625;51.080;16.970;2022-11-03T04:20:28;4.20;99.90
46890;DHT22;32625;51.080;16.970;2022-11-03T04:23:14;4.20;99.90
46890;DHT22;32625;51.080;16.970;2022-11-03T04:25:53;4.20;99.90
46890;DHT22;32625;51.080;16.970;2022-11-03T04:28:21;4.20;99.90
46890;DHT22;32625;51.080;16.970;2022-11-03T04:30:48;4.20;99.90
46890;DHT22;32625;51.080;16.970;2022-11-03T04:33:21;4.20;99.90
46890;DHT22;32625;51.080;16.970;2022-11-03T04:35:48;4.20;99.90
46890;DHT22;32625;51.080;16.970;2022-11-03T04:40:54;4.10;99.90
46890;DHT22;32625;51.080;16.970;2022-11-03T04:43:28;4.00;99.90
46890;DHT22;32625;51.080;16.970;2022-11-03T04:45:55;4.10;99.90
46890;DHT22;32625;51.080;16.970;2022-11-03T04:48:24;4.10;99.90
46890;DHT22;32625;51.080;16.970;2022-11-03T04:50:53;3.90;99.90
46890;DHT22;32625;51.080;16.970;2022-11-03T04:53:21;3.90;99.90
46890;DHT22;32625;51.080;16.970;2022-11-03T04:55:51;3.90;99.90
46890;DHT22;32625;51.080;16.970;2022-11-03T04:58:29;3.90;99.90
46890;DHT22;32625;51.080;16.970;2022-11-03T05:01:00;3.90;99.90
46890;DHT22;32625;51.080;16.970;2022-11-03T05:03:34;3.90;99.90
46890;DHT22;32625;51.080;16.970;2022-11-03T05:06:13;3.90;99.90
46890;DHT22;32625;51.080;16.970;2022-11-03T05:08:43;3.90;99.90
46890;DHT22;32625;51.080;16.970;2022-11-03T05:13:47;3.90;99.90
46890;DHT22;32625;51.080;16.970;2022-11-03T05:16:15;3.90;99.90
46890;DHT22;32625;51.080;16.970;2022-11-03T05:18:46;3.90;99.90
46890;DHT22;32625;51.080;16.970;2022-11-03T05:21:17;3.90;99.90
46890;DHT22;32625;51.080;16.970;2022-11-03T05:23:49;3.80;99.90
46890;DHT22;32625;51.080;16.970;2022-11-03T05:26:24;3.80;99.90
46890;DHT22;32625;51.080;16.970;2022-11-03T05:28:56;3.90;99.90
46890;DHT22;32625;51.080;16.970;2022-11-03T05:31:28;3.80;99.90
46890;DHT22;32625;51.080;16.970;2022-11-03T05:33:59;3.80;99.90
46890;DHT22;32625;51.080;16.970;2022-11-03T05:36:29;3.80;99.90
46890;DHT22;32625;51.080;16.970;2022-11-03T05:41:46;3.80;99.90
46890;DHT22;32625;51.080;16.970;2022-11-03T05:44:35;3.90;99.90
46890;DHT22;32625;51.080;16.970;2022-11-03T05:47:29;3.80;99.90
46890;DHT22;32625;51.080;16.970;2022-11-03T05:50:20;3.80;99.90
46890;DHT22;32625;51.080;16.970;2022-11-03T05:52:51;3.90;99.90
46890;DHT22;32625;51.080;16.970;2022-11-03T05:55:34;3.90;99.90
46890;DHT22;32625;51.080;16.970;2022-11-03T05:58:18;3.80;99.90
46890;DHT22;32625;51.080;16.970;2022-11-03T06:00:49;3.90;99.90
46890;DHT22;32625;51.080;16.970;2022-11-03T06:03:22;3.90;99.90
46890;DHT22;32625;51.080;16.970;2022-11-03T06:05:50;3.90;99.90
46890;DHT22;32625;51.080;16.970;2022-11-03T06:08:20;3.80;99.90
46890;DHT22;32625;51.080;16.970;2022-11-03T06:10:58;3.90;99.90
46890;DHT22;32625;51.080;16.970;2022-11-03T06:13:34;4.00;99.90
46890;DHT22;32625;51.080;16.970;2022-11-03T06:18:37;4.00;99.90
46890;DHT22;32625;51.080;16.970;2022-11-03T06:21:18;4.00;99.90
46890;DHT22;32625;51.080;16.970;2022-11-03T06:23:47;4.00;99.90
46890;DHT22;32625;51.080;16.970;2022-11-03T06:26:21;4.10;99.90
46890;DHT22;32625;51.080;16.970;2022-11-03T06:28:50;4.10;99.90
46890;DHT22;32625;51.080;16.970;2022-11-03T06:31:22;4.10;99.90
46890;DHT22;32625;51.080;16.970;2022-11-03T06:33:51;4.10;99.90
46890;DHT22;32625;51.080;16.970;2022-11-03T06:36:20;4.20;99.90
46890;DHT22;32625;51.080;16.970;2022-11-03T06:38:55;4.20;99.90
46890;DHT22;32625;51.080;16.970;2022-11-03T06:41:25;4.30;99.90
46890;DHT22;32625;51.080;16.970;2022-11-03T06:43:54;4.30;99.90
46890;DHT22;32625;51.080;16.970;2022-11-03T06:46:25;4.40;99.90
46890;DHT22;32625;51.080;16.970;2022-11-03T06:48:58;4.50;99.90
46890;DHT22;32625;51.080;16.970;2022-11-03T06:51:27;4.50;99.90
46890;DHT22;32625;51.080;16.970;2022-11-03T06:53:59;4.60;99.90
46890;DHT22;32625;51.080;16.970;2022-11-03T06:56:30;4.70;99.90
46890;DHT22;32625;51.080;16.970;2022-11-03T06:59:01;4.80;99.90
46890;DHT22;32625;51.080;16.970;2022-11-03T07:01:31;4.80;99.90
46890;DHT22;32625;51.080;16.970;2022-11-03T07:04:21;4.90;99.90
46890;DHT22;32625;51.080;16.970;2022-11-03T07:06:50;5.00;99.90
46890;DHT22;32625;51.080;16.970;2022-11-03T07:09:22;5.00;99.90
46890;DHT22;32625;51.080;16.970;2022-11-03T07:11:56;5.00;99.90
46890;DHT22;32625;51.080;16.970;2022-11-03T07:14:28;5.10;99.90
46890;DHT22;32625;51.080;16.970;2022-11-03T07:17:03;5.20;99.90
46890;DHT22;32625;51.080;16.970;2022-11-03T07:19:36;5.30;99.90
46890;DHT22;32625;51.080;16.970;2022-11-03T07:22:18;5.30;99.90
46890;DHT22;32625;51.080;16.970;2022-11-03T07:24:50;5.10;99.90
46890;DHT22;32625;51.080;16.970;2022-11-03T07:27:20;5.60;99.90
46890;DHT22;32625;51.080;16.970;2022-11-03T07:29:50;5.50;99.90
46890;DHT22;32625;51.080;16.970;2022-11-03T07:32:22;5.50;99.90
46890;DHT22;32625;51.080;16.970;2022-11-03T07:35:03;5.50;99.90
46890;DHT22;32625;51.080;16.970;2022-11-03T07:37:33;5.60;99.90
46890;DHT22;32625;51.080;16.970;2022-11-03T07:40:02;5.50;99.90
46890;DHT22;32625;51.080;16.970;2022-11-03T07:42:31;5.40;99.90
46890;DHT22;32625;51.080;16.970;2022-11-03T07:45:01;5.70;99.90
46890;DHT22;32625;51.080;16.970;2022-11-03T07:47:29;5.80;99.90
46890;DHT22;32625;51.080;16.970;2022-11-03T07:49:57;5.70;99.90
46890;DHT22;32625;51.080;16.970;2022-11-03T07:52:26;5.90;99.90
46890;DHT22;32625;51.080;16.970;2022-11-03T07:54:55;6.00;99.90
46890;DHT22;32625;51.080;16.970;2022-11-03T07:57:30;6.10;99.90
46890;DHT22;32625;51.080;16.970;2022-11-03T08:00:04;6.10;99.90
46890;DHT22;32625;51.080;16.970;2022-11-03T08:02:58;6.20;99.90
46890;DHT22;32625;51.080;16.970;2022-11-03T08:05:27;6.30;99.90
46890;DHT22;32625;51.080;16.970;2022-11-03T08:07:58;6.50;99.90
46890;DHT22;32625;51.080;16.970;2022-11-03T08:10:28;6.50;99.90
46890;DHT22;32625;51.080;16.970;2022-11-03T08:15:57;6.60;99.90
46890;DHT22;32625;51.080;16.970;2022-11-03T08:18:28;6.60;99.90
46890;DHT22;32625;51.080;16.970;2022-11-03T08:26:47;6.60;99.90
46890;DHT22;32625;51.080;16.970;2022-11-03T08:35:08;7.20;99.90
46890;DHT22;32625;51.080;16.970;2022-11-03T08:37:39;7.10;99.90
46890;DHT22;32625;51.080;16.970;2022-11-03T08:49:40;7.80;99.90
46890;DHT22;32625;51.080;16.970;2022-11-03T08:52:13;7.80;99.90
46890;DHT22;32625;51.080;16.970;2022-11-03T08:54:47;8.00;99.90
46890;DHT22;32625;51.080;16.970;2022-11-03T09:03:41;8.30;99.90
46890;DHT22;32625;51.080;16.970;2022-11-03T09:06:22;8.30;99.90
46890;DHT22;32625;51.080;16.970;2022-11-03T09:08:59;8.50;99.90
46890;DHT22;32625;51.080;16.970;2022-11-03T09:12:01;8.90;99.90
46890;DHT22;32625;51.080;16.970;2022-11-03T09:14:32;9.70;99.90
46890;DHT22;32625;51.080;16.970;2022-11-03T09:17:01;8.80;99.90
46890;DHT22;32625;51.080;16.970;2022-11-03T09:19:36;8.90;99.90
46890;DHT22;32625;51.080;16.970;2022-11-03T09:22:05;9.00;99.90
46890;DHT22;32625;51.080;16.970;2022-11-03T09:24:35;9.00;99.90
46890;DHT22;32625;51.080;16.970;2022-11-03T09:27:03;9.10;99.90
46890;DHT22;32625;51.080;16.970;2022-11-03T09:29:36;9.10;99.90
46890;DHT22;32625;51.080;16.970;2022-11-03T09:32:26;9.20;99.90
46890;DHT22;32625;51.080;16.970;2022-11-03T09:34:54;9.40;99.90
46890;DHT22;32625;51.080;16.970;2022-11-03T09:40:27;9.40;99.90
46890;DHT22;32625;51.080;16.970;2022-11-03T09:42:57;9.40;99.90
46890;DHT22;32625;51.080;16.970;2022-11-03T09:45:27;9.60;99.90
46890;DHT22;32625;51.080;16.970;2022-11-03T09:48:00;9.60;99.90
46890;DHT22;32625;51.080;16.970;2022-11-03T09:50:31;9.60;99.90
46890;DHT22;32625;51.080;16.970;2022-11-03T09:53:07;9.70;99.90
46890;DHT22;32625;51.080;16.970;2022-11-03T09:55:38;9.70;99.90
46890;DHT22;32625;51.080;16.970;2022-11-03T09:58:15;9.70;99.90
46890;DHT22;32625;51.080;16.970;2022-11-03T10:00:46;9.70;99.90
46890;DHT22;32625;51.080;16.970;2022-11-03T10:03:29;9.30;99.90
46890;DHT22;32625;51.080;16.970;2022-11-03T10:05:58;9.70;99.90
46890;DHT22;32625;51.080;16.970;2022-11-03T10:08:32;9.90;99.90
46890;DHT22;32625;51.080;16.970;2022-11-03T10:11:08;10.00;99.90
46890;DHT22;32625;51.080;16.970;2022-11-03T10:13:42;10.20;99.90
46890;DHT22;32625;51.080;16.970;2022-11-03T10:16:20;10.10;99.90
46890;DHT22;32625;51.080;16.970;2022-11-03T10:18:50;10.20;99.90
46890;DHT22;32625;51.080;16.970;2022-11-03T10:21:28;10.40;99.90
46890;DHT22;32625;51.080;16.970;2022-11-03T10:23:56;10.40;99.90
46890;DHT22;32625;51.080;16.970;2022-11-03T10:26:28;10.30;99.90
46890;DHT22;32625;51.080;16.970;2022-11-03T10:29:17;10.30;99.90
46890;DHT22;32625;51.080;16.970;2022-11-03T10:31:50;10.40;99.90
46890;DHT22;32625;51.080;16.970;2022-11-03T10:34:38;10.40;99.90
46890;DHT22;32625;51.080;16.970;2022-11-03T10:37:15;10.50;99.90
46890;DHT22;32625;51.080;16.970;2022-11-03T10:39:52;10.50;99.90
46890;DHT22;32625;51.080;16.970;2022-11-03T10:42:31;10.50;99.90
46890;DHT22;32625;51.080;16.970;2022-11-03T10:45:18;10.60;99.90
46890;DHT22;32625;51.080;16.970;2022-11-03T10:47:59;10.60;99.90
46890;DHT22;32625;51.080;16.970;2022-11-03T10:50:28;10.70;99.90
46890;DHT22;32625;51.080;16.970;2022-11-03T10:53:02;10.80;99.90
46890;DHT22;32625;51.080;16.970;2022-11-03T10:55:32;10.80;99.90
46890;DHT22;32625;51.080;16.970;2022-11-03T10:58:03;11.00;99.90
46890;DHT22;32625;51.080;16.970;2022-11-03T11:00:35;10.90;99.90
46890;DHT22;32625;51.080;16.970;2022-11-03T11:03:05;11.00;99.90
46890;DHT22;32625;51.080;16.970;2022-11-03T11:05:45;11.00;99.90
46890;DHT22;32625;51.080;16.970;2022-11-03T11:08:22;11.00;99.90
46890;DHT22;32625;51.080;16.970;2022-11-03T11:10:50;11.30;99.90
46890;DHT22;32625;51.080;16.970;2022-11-03T11:23:51;11.40;99.90
46890;DHT22;32625;51.080;16.970;2022-11-03T11:31:38;11.30;99.90
46890;DHT22;32625;51.080;16.970;2022-11-03T11:42:10;11.50;99.90
46890;DHT22;32625;51.080;16.970;2022-11-03T11:47:26;11.40;99.90
46890;DHT22;32625;51.080;16.970;2022-11-03T11:56:01;11.70;99.90
46890;DHT22;32625;51.080;16.970;2022-11-03T11:58:52;11.70;99.90
46890;DHT22;32625;51.080;16.970;2022-11-03T12:01:22;11.80;99.90
46890;DHT22;32625;51.080;16.970;2022-11-03T12:03:53;11.90;99.90
46890;DHT22;32625;51.080;16.970;2022-11-03T12:06:36;12.00;99.90
46890;DHT22;32625;51.080;16.970;2022-11-03T12:09:06;12.00;99.90
46890;DHT22;32625;51.080;16.970;2022-11-03T12:11:45;12.00;99.90
46890;DHT22;32625;51.080;16.970;2022-11-03T12:16:58;12.00;99.90
46890;DHT22;32625;51.080;16.970;2022-11-03T12:19:49;11.90;99.90
46890;DHT22;32625;51.080;16.970;2022-11-03T12:22:38;11.90;99.90
46890;DHT22;32625;51.080;16.970;2022-11-03T12:25:31;11.90;99.90
46890;DHT22;32625;51.080;16.970;2022-11-03T12:27:59;12.00;99.90
46890;DHT22;32625;51.080;16.970;2022-11-03T12:30:29;12.00;99.90
46890;DHT22;32625;51.080;16.970;2022-11-03T12:33:06;11.90;99.90
46890;DHT22;32625;51.080;16.970;2022-11-03T12:35:43;12.00;99.90
46890;DHT22;32625;51.080;16.970;2022-11-03T12:38:22;12.20;99.90
46890;DHT22;32625;51.080;16.970;2022-11-03T12:40:56;12.20;99.90
46890;DHT22;32625;51.080;16.970;2022-11-03T12:43:24;12.30;99.90
46890;DHT22;32625;51.080;16.970;2022-11-03T12:45:52;12.30;99.90
46890;DHT22;32625;51.080;16.970;2022-11-03T12:48:20;12.30;99.90
46890;DHT22;32625;51.080;16.970;2022-11-03T12:50:49;12.30;99.90
46890;DHT22;32625;51.080;16.970;2022-11-03T12:53:16;12.30;99.90
46890;DHT22;32625;51.080;16.970;2022-11-03T12:55:45;12.20;99.90
46890;DHT22;32625;51.080;16.970;2022-11-03T12:58:15;12.30;99.90
46890;DHT22;32625;51.080;16.970;2022-11-03T13:00:44;12.10;99.90
46890;DHT22;32625;51.080;16.970;2022-11-03T13:03:21;12.30;99.90
46890;DHT22;32625;51.080;16.970;2022-11-03T13:05:49;12.30;99.90
46890;DHT22;32625;51.080;16.970;2022-11-03T13:08:18;12.10;99.90
46890;DHT22;32625;51.080;16.970;2022-11-03T13:10:47;12.10;99.90
46890;DHT22;32625;51.080;16.970;2022-11-03T13:13:16;12.10;99.90
46890;DHT22;32625;51.080;16.970;2022-11-03T13:15:46;12.20;99.90
46890;DHT22;32625;51.080;16.970;2022-11-03T13:18:15;12.10;99.90
46890;DHT22;32625;51.080;16.970;2022-11-03T13:20:42;12.20;99.90
46890;DHT22;32625;51.080;16.970;2022-11-03T13:23:13;12.10;99.90
46890;DHT22;32625;51.080;16.970;2022-11-03T13:25:46;12.10;99.90
46890;DHT22;32625;51.080;16.970;2022-11-03T13:28:16;12.10;99.90
46890;DHT22;32625;51.080;16.970;2022-11-03T13:30:43;12.10;99.90
46890;DHT22;32625;51.080;16.970;2022-11-03T13:33:12;12.10;99.90
46890;DHT22;32625;51.080;16.970;2022-11-03T13:35:42;12.10;99.90
46890;DHT22;32625;51.080;16.970;2022-11-03T13:38:10;12.00;99.90
46890;DHT22;32625;51.080;16.970;2022-11-03T13:40:38;11.90;99.90
46890;DHT22;32625;51.080;16.970;2022-11-03T13:43:23;11.90;99.90
46890;DHT22;32625;51.080;16.970;2022-11-03T13:46:19;11.90;99.90
46890;DHT22;32625;51.080;16.970;2022-11-03T13:48:46;11.90;99.90
46890;DHT22;32625;51.080;16.970;2022-11-03T13:51:34;11.80;99.90
46890;DHT22;32625;51.080;16.970;2022-11-03T13:54:16;11.80;99.90
46890;DHT22;32625;51.080;16.970;2022-11-03T13:57:07;11.70;99.90
46890;DHT22;32625;51.080;16.970;2022-11-03T13:59:58;11.70;99.90
46890;DHT22;32625;51.080;16.970;2022-11-03T14:02:40;11.80;99.90
46890;DHT22;32625;51.080;16.970;2022-11-03T14:05:29;11.60;99.90
46890;DHT22;32625;51.080;16.970;2022-11-03T14:07:58;11.60;99.90
46890;DHT22;32625;51.080;16.970;2022-11-03T14:10:26;11.60;99.90
46890;DHT22;32625;51.080;16.970;2022-11-03T14:12:55;11.60;99.90
46890;DHT22;32625;51.080;16.970;2022-11-03T14:15:27;11.50;99.90
46890;DHT22;32625;51.080;16.970;2022-11-03T14:17:55;11.40;99.90
46890;DHT22;32625;51.080;16.970;2022-11-03T14:20:27;11.50;99.90
46890;DHT22;32625;51.080;16.970;2022-11-03T14:22:56;11.50;99.90
46890;DHT22;32625;51.080;16.970;2022-11-03T14:25:25;11.60;99.90
46890;DHT22;32625;51.080;16.970;2022-11-03T14:27:53;11.30;99.90
46890;DHT22;32625;51.080;16.970;2022-11-03T14:30:21;11.40;99.90
46890;DHT22;32625;51.080;16.970;2022-11-03T14:32:50;11.40;99.90
46890;DHT22;32625;51.080;16.970;2022-11-03T14:35:25;11.40;99.90
46890;DHT22;32625;51.080;16.970;2022-11-03T14:37:53;11.20;99.90
46890;DHT22;32625;51.080;16.970;2022-11-03T14:40:20;11.20;99.90
46890;DHT22;32625;51.080;16.970;2022-11-03T14:45:58;11.10;99.90
46890;DHT22;32625;51.080;16.970;2022-11-03T14:48:29;11.10;99.90
46890;DHT22;32625;51.080;16.970;2022-11-03T14:51:01;11.00;99.90
46890;DHT22;32625;51.080;16.970;2022-11-03T14:53:33;10.90;99.90
46890;DHT22;32625;51.080;16.970;2022-11-03T14:56:06;11.00;99.90
46890;DHT22;32625;51.080;16.970;2022-11-03T14:58:37;10.90;99.90
46890;DHT22;32625;51.080;16.970;2022-11-03T15:01:06;10.80;99.90
46890;DHT22;32625;51.080;16.970;2022-11-03T15:03:37;10.80;99.90
46890;DHT22;32625;51.080;16.970;2022-11-03T15:06:08;10.70;99.90
46890;DHT22;32625;51.080;16.970;2022-11-03T15:08:48;10.60;99.90
46890;DHT22;32625;51.080;16.970;2022-11-03T15:11:23;10.60;99.90
46890;DHT22;32625;51.080;16.970;2022-11-03T15:13:56;10.60;99.90
46890;DHT22;32625;51.080;16.970;2022-11-03T15:16:30;10.60;99.90
46890;DHT22;32625;51.080;16.970;2022-11-03T15:19:06;10.60;99.90
46890;DHT22;32625;51.080;16.970;2022-11-03T15:21:38;10.40;99.90
46890;DHT22;32625;51.080;16.970;2022-11-03T15:24:06;10.40;99.90
46890;DHT22;32625;51.080;16.970;2022-11-03T15:26:56;10.30;99.90
46890;DHT22;32625;51.080;16.970;2022-11-03T15:29:27;10.30;99.90
46890;DHT22;32625;51.080;16.970;2022-11-03T15:32:22;10.20;99.90
46890;DHT22;32625;51.080;16.970;2022-11-03T15:34:55;10.10;99.90
46890;DHT22;32625;51.080;16.970;2022-11-03T15:37:50;10.00;99.90
46890;DHT22;32625;51.080;16.970;2022-11-03T15:40:21;9.10;99.90
46890;DHT22;32625;51.080;16.970;2022-11-03T15:42:56;10.00;99.90
46890;DHT22;32625;51.080;16.970;2022-11-03T15:45:34;10.50;99.90
46890;DHT22;32625;51.080;16.970;2022-11-03T15:48:09;10.00;99.90
46890;DHT22;32625;51.080;16.970;2022-11-03T15:50:43;10.00;99.90
46890;DHT22;32625;51.080;16.970;2022-11-03T15:53:12;10.00;99.90
46890;DHT22;32625;51.080;16.970;2022-11-03T15:55:39;9.90;99.90
46890;DHT22;32625;51.080;16.970;2022-11-03T15:58:06;9.90;99.90
46890;DHT22;32625;51.080;16.970;2022-11-03T16:00:34;9.90;99.90
46890;DHT22;32625;51.080;16.970;2022-11-03T16:03:02;9.90;99.90
46890;DHT22;32625;51.080;16.970;2022-11-03T16:05:29;9.80;99.90
46890;DHT22;32625;51.080;16.970;2022-11-03T16:07:56;9.80;99.90
46890;DHT22;32625;51.080;16.970;2022-11-03T16:10:26;9.80;99.90
46890;DHT22;32625;51.080;16.970;2022-11-03T16:12:53;9.80;99.90
46890;DHT22;32625;51.080;16.970;2022-11-03T16:15:20;9.80;99.90
46890;DHT22;32625;51.080;16.970;2022-11-03T16:17:47;9.80;99.90
46890;DHT22;32625;51.080;16.970;2022-11-03T16:20:14;9.70;99.90
46890;DHT22;32625;51.080;16.970;2022-11-03T16:22:42;9.70;99.90
46890;DHT22;32625;51.080;16.970;2022-11-03T16:25:09;9.70;99.90
46890;DHT22;32625;51.080;16.970;2022-11-03T16:27:41;9.70;99.90
46890;DHT22;32625;51.080;16.970;2022-11-03T16:30:08;9.60;99.90
46890;DHT22;32625;51.080;16.970;2022-11-03T16:32:36;9.60;99.90
46890;DHT22;32625;51.080;16.970;2022-11-03T16:35:03;9.50;99.90
46890;DHT22;32625;51.080;16.970;2022-11-03T16:37:30;9.50;99.90
46890;DHT22;32625;51.080;16.970;2022-11-03T16:39:57;9.50;99.90
46890;DHT22;32625;51.080;16.970;2022-11-03T16:42:24;9.50;99.90
46890;DHT22;32625;51.080;16.970;2022-11-03T16:44:51;9.40;99.90
46890;DHT22;32625;51.080;16.970;2022-11-03T16:47:19;9.30;99.90
46890;DHT22;32625;51.080;16.970;2022-11-03T16:49:46;9.30;99.90
46890;DHT22;32625;51.080;16.970;2022-11-03T16:52:13;9.30;99.90
46890;DHT22;32625;51.080;16.970;2022-11-03T16:54:40;9.30;99.90
46890;DHT22;32625;51.080;16.970;2022-11-03T16:57:08;9.30;99.90
46890;DHT22;32625;51.080;16.970;2022-11-03T16:59:35;9.30;99.90
46890;DHT22;32625;51.080;16.970;2022-11-03T17:02:02;9.30;99.90
46890;DHT22;32625;51.080;16.970;2022-11-03T17:04:29;9.30;99.90
46890;DHT22;32625;51.080;16.970;2022-11-03T17:06:56;9.30;99.90
46890;DHT22;32625;51.080;16.970;2022-11-03T17:09:23;9.30;99.90
46890;DHT22;32625;51.080;16.970;2022-11-03T17:11:50;9.30;99.90
46890;DHT22;32625;51.080;16.970;2022-11-03T17:14:17;9.30;99.90
46890;DHT22;32625;51.080;16.970;2022-11-03T17:16:44;9.20;99.90
46890;DHT22;32625;51.080;16.970;2022-11-03T17:19:13;9.20;99.90
46890;DHT22;32625;51.080;16.970;2022-11-03T17:21:41;9.20;99.90
46890;DHT22;32625;51.080;16.970;2022-11-03T17:24:08;9.30;99.90
46890;DHT22;32625;51.080;16.970;2022-11-03T17:29:14;9.30;99.90
46890;DHT22;32625;51.080;16.970;2022-11-03T17:31:43;9.20;99.90
46890;DHT22;32625;51.080;16.970;2022-11-03T17:34:10;9.30;99.90
46890;DHT22;32625;51.080;16.970;2022-11-03T17:36:38;9.20;99.90
46890;DHT22;32625;51.080;16.970;2022-11-03T17:39:05;9.20;99.90
46890;DHT22;32625;51.080;16.970;2022-11-03T17:41:33;9.20;99.90
46890;DHT22;32625;51.080;16.970;2022-11-03T17:44:01;9.20;99.90
46890;DHT22;32625;51.080;16.970;2022-11-03T17:46:28;9.30;99.90
46890;DHT22;32625;51.080;16.970;2022-11-03T17:48:56;9.20;99.90